sensor_id;sensor_type;location;lat;lon;timestamp;temperature;humidity
12833;DHT22;6483;51.310;4.462;2022-08-25T00:02:05;20.80;99.90
12833;DHT22;6483;51.310;4.462;2022-08-25T00:04:34;20.70;99.90
12833;DHT22;6483;51.310;4.462;2022-08-25T00:07:04;20.70;99.90
12833;DHT22;6483;51.310;4.462;2022-08-25T00:09:34;20.60;99.90
12833;DHT22;6483;51.310;4.462;2022-08-25T00:12:04;20.70;99.90
12833;DHT22;6483;51.310;4.462;2022-08-25T00:14:36;20.70;99.90
12833;DHT22;6483;51.310;4.462;2022-08-25T00:19:32;20.60;99.90
12833;DHT22;6483;51.310;4.462;2022-08-25T01:19:15;20.30;99.90
12833;DHT22;6483;51.310;4.462;2022-08-25T01:21:48;19.80;99.90
12833;DHT22;6483;51.310;4.462;2022-08-25T01:27:10;19.70;99.90
12833;DHT22;6483;51.310;4.462;2022-08-25T01:29:36;19.80;99.90
12833;DHT22;6483;51.310;4.462;2022-08-25T01:32:06;19.80;99.90
12833;DHT22;6483;51.310;4.462;2022-08-25T01:34:36;19.70;99.90
12833;DHT22;6483;51.310;4.462;2022-08-25T01:37:02;19.60;99.90
12833;DHT22;6483;51.310;4.462;2022-08-25T01:39:32;19.50;99.90
12833;DHT22;6483;51.310;4.462;2022-08-25T01:42:56;19.40;99.90
12833;DHT22;6483;51.310;4.462;2022-08-25T01:45:24;19.30;99.90
12833;DHT22;6483;51.310;4.462;2022-08-25T01:47:53;19.30;99.90
12833;DHT22;6483;51.310;4.462;2022-08-25T01:50:25;19.30;99.90
12833;DHT22;6483;51.310;4.462;2022-08-25T01:53:07;19.20;99.90
12833;DHT22;6483;51.310;4.462;2022-08-25T01:55:41;19.20;99.90
12833;DHT22;6483;51.310;4.462;2022-08-25T01:58:45;19.10;99.90
12833;DHT22;6483;51.310;4.462;2022-08-25T02:01:35;19.10;99.90
12833;DHT22;6483;51.310;4.462;2022-08-25T02:04:00;19.00;99.90
12833;DHT22;6483;51.310;4.462;2022-08-25T02:06:31;19.00;99.90
12833;DHT22;6483;51.310;4.462;2022-08-25T02:09:02;18.90;99.90
12833;DHT22;6483;51.310;4.462;2022-08-25T02:11:30;18.80;99.90
12833;DHT22;6483;51.310;4.462;2022-08-25T02:13:59;18.80;99.90
12833;DHT22;6483;51.310;4.462;2022-08-25T02:16:49;18.80;99.90
12833;DHT22;6483;51.310;4.462;2022-08-25T02:19:19;18.70;99.90
12833;DHT22;6483;51.310;4.462;2022-08-25T02:21:49;18.80;99.90
12833;DHT22;6483;51.310;4.462;2022-08-25T02:24:15;18.70;99.90
12833;DHT22;6483;51.310;4.462;2022-08-25T02:26:44;18.60;99.90
12833;DHT22;6483;51.310;4.462;2022-08-25T02:29:13;18.60;99.90
12833;DHT22;6483;51.310;4.462;2022-08-25T02:31:39;18.60;99.90
12833;DHT22;6483;51.310;4.462;2022-08-25T02:34:06;18.60;99.90
12833;DHT22;6483;51.310;4.462;2022-08-25T02:36:52;18.50;99.90
12833;DHT22;6483;51.310;4.462;2022-08-25T02:39:21;18.50;99.90
12833;DHT22;6483;51.310;4.462;2022-08-25T02:42:30;18.50;99.90
12833;DHT22;6483;51.310;4.462;2022-08-25T02:44:56;18.40;99.90
12833;DHT22;6483;51.310;4.462;2022-08-25T02:47:22;18.40;99.90
12833;DHT22;6483;51.310;4.462;2022-08-25T02:50:07;18.40;99.90
12833;DHT22;6483;51.310;4.462;2022-08-25T02:52:33;18.40;99.90
12833;DHT22;6483;51.310;4.462;2022-08-25T02:55:02;18.30;99.90
12833;DHT22;6483;51.310;4.462;2022-08-25T02:57:30;18.20;99.90
12833;DHT22;6483;51.310;4.462;2022-08-25T02:59:56;18.20;99.90
12833;DHT22;6483;51.310;4.462;2022-08-25T03:02:22;18.20;99.90
12833;DHT22;6483;51.310;4.462;2022-08-25T03:04:49;18.20;99.90
12833;DHT22;6483;51.310;4.462;2022-08-25T03:07:15;18.30;99.90
12833;DHT22;6483;51.310;4.462;2022-08-25T03:09:42;18.20;99.90
12833;DHT22;6483;51.310;4.462;2022-08-25T03:12:08;18.20;99.90
12833;DHT22;6483;51.310;4.462;2022-08-25T03:14:39;18.10;99.90
12833;DHT22;6483;51.310;4.462;2022-08-25T03:17:06;18.20;99.90
12833;DHT22;6483;51.310;4.462;2022-08-25T03:19:32;18.10;99.90
12833;DHT22;6483;51.310;4.462;2022-08-25T03:22:12;18.00;99.90
12833;DHT22;6483;51.310;4.462;2022-08-25T03:24:37;17.90;99.90
12833;DHT22;6483;51.310;4.462;2022-08-25T03:27:03;17.90;99.90
12833;DHT22;6483;51.310;4.462;2022-08-25T03:29:33;17.80;99.90
12833;DHT22;6483;51.310;4.462;2022-08-25T03:32:02;17.80;99.90
12833;DHT22;6483;51.310;4.462;2022-08-25T03:34:30;17.80;99.90
12833;DHT22;6483;51.310;4.462;2022-08-25T03:36:59;17.70;99.90
12833;DHT22;6483;51.310;4.462;2022-08-25T03:39:25;17.70;99.90
12833;DHT22;6483;51.310;4.462;2022-08-25T03:41:52;17.70;99.90
12833;DHT22;6483;51.310;4.462;2022-08-25T03:44:18;17.70;99.90
12833;DHT22;6483;51.310;4.462;2022-08-25T03:46:49;17.70;99.90
12833;DHT22;6483;51.310;4.462;2022-08-25T03:49:21;17.80;99.90
12833;DHT22;6483;51.310;4.462;2022-08-25T03:51:49;17.90;99.90
12833;DHT22;6483;51.310;4.462;2022-08-25T03:54:22;17.80;99.90
12833;DHT22;6483;51.310;4.462;2022-08-25T03:56:48;17.70;99.90
12833;DHT22;6483;51.310;4.462;2022-08-25T03:59:14;17.70;99.90
12833;DHT22;6483;51.310;4.462;2022-08-25T04:01:42;17.70;99.90
12833;DHT22;6483;51.310;4.462;2022-08-25T04:04:09;17.60;99.90
12833;DHT22;6483;51.310;4.462;2022-08-25T04:06:35;17.50;99.90
12833;DHT22;6483;51.310;4.462;2022-08-25T04:09:00;17.50;99.90
12833;DHT22;6483;51.310;4.462;2022-08-25T04:11:44;17.50;99.90
12833;DHT22;6483;51.310;4.462;2022-08-25T04:14:11;17.50;99.90
12833;DHT22;6483;51.310;4.462;2022-08-25T04:16:38;17.60;99.90
12833;DHT22;6483;51.310;4.462;2022-08-25T04:19:07;17.50;99.90
12833;DHT22;6483;51.310;4.462;2022-08-25T04:21:35;17.50;99.90
12833;DHT22;6483;51.310;4.462;2022-08-25T04:24:01;17.50;99.90
12833;DHT22;6483;51.310;4.462;2022-08-25T04:26:33;17.50;99.90
12833;DHT22;6483;51.310;4.462;2022-08-25T04:29:00;17.50;99.90
12833;DHT22;6483;51.310;4.462;2022-08-25T04:31:34;17.50;99.90
12833;DHT22;6483;51.310;4.462;2022-08-25T04:34:02;17.50;99.90
12833;DHT22;6483;51.310;4.462;2022-08-25T04:36:31;17.50;99.90
12833;DHT22;6483;51.310;4.462;2022-08-25T04:38:57;17.40;99.90
12833;DHT22;6483;51.310;4.462;2022-08-25T04:41:26;17.40;99.90
12833;DHT22;6483;51.310;4.462;2022-08-25T04:43:57;17.40;99.90
12833;DHT22;6483;51.310;4.462;2022-08-25T04:46:26;17.50;99.90
12833;DHT22;6483;51.310;4.462;2022-08-25T04:48:54;17.40;99.90
12833;DHT22;6483;51.310;4.462;2022-08-25T04:51:27;17.40;99.90
12833;DHT22;6483;51.310;4.462;2022-08-25T04:53:58;17.40;99.90
12833;DHT22;6483;51.310;4.462;2022-08-25T04:56:30;17.40;99.90
12833;DHT22;6483;51.310;4.462;2022-08-25T04:59:05;17.30;99.90
12833;DHT22;6483;51.310;4.462;2022-08-25T05:01:32;17.40;99.90
12833;DHT22;6483;51.310;4.462;2022-08-25T05:04:03;17.30;99.90
12833;DHT22;6483;51.310;4.462;2022-08-25T05:06:32;17.40;99.90
12833;DHT22;6483;51.310;4.462;2022-08-25T05:09:04;17.40;99.90
12833;DHT22;6483;51.310;4.462;2022-08-25T05:11:32;17.40;99.90
12833;DHT22;6483;51.310;4.462;2022-08-25T05:16:37;17.40;99.90
12833;DHT22;6483;51.310;4.462;2022-08-25T05:19:03;17.50;99.90
12833;DHT22;6483;51.310;4.462;2022-08-25T05:21:29;17.50;99.90
12833;DHT22;6483;51.310;4.462;2022-08-25T05:23:56;17.50;99.90
12833;DHT22;6483;51.310;4.462;2022-08-25T05:26:24;17.50;99.90
12833;DHT22;6483;51.310;4.462;2022-08-25T05:28:54;17.50;99.90
12833;DHT22;6483;51.310;4.462;2022-08-25T05:31:21;17.60;99.90
12833;DHT22;6483;51.310;4.462;2022-08-25T05:33:53;17.60;99.90
12833;DHT22;6483;51.310;4.462;2022-08-25T05:36:22;17.60;99.90
12833;DHT22;6483;51.310;4.462;2022-08-25T05:38:48;17.70;99.90
12833;DHT22;6483;51.310;4.462;2022-08-25T05:41:17;17.70;99.90
12833;DHT22;6483;51.310;4.462;2022-08-25T05:43:47;17.80;99.90
12833;DHT22;6483;51.310;4.462;2022-08-25T05:46:14;17.80;99.90
12833;DHT22;6483;51.310;4.462;2022-08-25T05:48:40;17.90;99.90
12833;DHT22;6483;51.310;4.462;2022-08-25T05:51:08;18.00;99.90
12833;DHT22;6483;51.310;4.462;2022-08-25T05:53:36;18.00;99.90
12833;DHT22;6483;51.310;4.462;2022-08-25T05:56:02;18.10;99.90
12833;DHT22;6483;51.310;4.462;2022-08-25T05:58:29;18.20;99.90
12833;DHT22;6483;51.310;4.462;2022-08-25T06:00:57;18.30;99.90
12833;DHT22;6483;51.310;4.462;2022-08-25T06:03:43;18.40;99.90
12833;DHT22;6483;51.310;4.462;2022-08-25T06:06:09;18.40;99.90
12833;DHT22;6483;51.310;4.462;2022-08-25T06:08:37;18.50;99.90
12833;DHT22;6483;51.310;4.462;2022-08-25T06:11:07;18.60;99.90
12833;DHT22;6483;51.310;4.462;2022-08-25T06:13:33;18.70;99.90
12833;DHT22;6483;51.310;4.462;2022-08-25T06:15:59;18.80;99.90
12833;DHT22;6483;51.310;4.462;2022-08-25T06:18:26;18.90;99.90
12833;DHT22;6483;51.310;4.462;2022-08-25T06:20:51;19.00;99.90
12833;DHT22;6483;51.310;4.462;2022-08-25T06:23:18;19.10;99.90
12833;DHT22;6483;51.310;4.462;2022-08-25T06:25:51;19.30;99.90
12833;DHT22;6483;51.310;4.462;2022-08-25T06:28:18;19.40;99.90
12833;DHT22;6483;51.310;4.462;2022-08-25T06:30:48;19.50;99.90
12833;DHT22;6483;51.310;4.462;2022-08-25T06:33:16;19.60;99.90
12833;DHT22;6483;51.310;4.462;2022-08-25T06:35:42;19.80;99.90
12833;DHT22;6483;51.310;4.462;2022-08-25T06:38:09;19.90;99.90
12833;DHT22;6483;51.310;4.462;2022-08-25T06:40:36;20.20;99.90
12833;DHT22;6483;51.310;4.462;2022-08-25T06:43:01;20.30;99.90
12833;DHT22;6483;51.310;4.462;2022-08-25T06:45:31;20.60;99.90
12833;DHT22;6483;51.310;4.462;2022-08-25T06:47:57;20.80;99.90
12833;DHT22;6483;51.310;4.462;2022-08-25T06:50:26;21.00;99.90
12833;DHT22;6483;51.310;4.462;2022-08-25T06:52:53;21.20;99.90
12833;DHT22;6483;51.310;4.462;2022-08-25T06:55:20;21.40;99.90
12833;DHT22;6483;51.310;4.462;2022-08-25T06:57:46;21.60;99.90
12833;DHT22;6483;51.310;4.462;2022-08-25T07:00:16;21.90;99.90
12833;DHT22;6483;51.310;4.462;2022-08-25T07:02:41;22.10;99.90
12833;DHT22;6483;51.310;4.462;2022-08-25T07:05:07;22.30;99.90
12833;DHT22;6483;51.310;4.462;2022-08-25T07:07:33;22.60;99.90
12833;DHT22;6483;51.310;4.462;2022-08-25T07:09:58;22.80;99.90
12833;DHT22;6483;51.310;4.462;2022-08-25T07:12:24;23.10;99.90
12833;DHT22;6483;51.310;4.462;2022-08-25T07:14:50;23.30;99.90
12833;DHT22;6483;51.310;4.462;2022-08-25T07:17:15;23.60;99.90
12833;DHT22;6483;51.310;4.462;2022-08-25T07:19:41;23.80;99.90
12833;DHT22;6483;51.310;4.462;2022-08-25T07:22:07;24.00;99.90
12833;DHT22;6483;51.310;4.462;2022-08-25T07:24:33;24.30;99.90
12833;DHT22;6483;51.310;4.462;2022-08-25T07:26:59;24.50;99.90
12833;DHT22;6483;51.310;4.462;2022-08-25T07:29:26;24.70;99.90
12833;DHT22;6483;51.310;4.462;2022-08-25T07:31:53;24.90;99.90
12833;DHT22;6483;51.310;4.462;2022-08-25T07:34:19;25.10;99.90
12833;DHT22;6483;51.310;4.462;2022-08-25T07:37:03;25.40;99.90
12833;DHT22;6483;51.310;4.462;2022-08-25T07:39:30;25.50;99.90
12833;DHT22;6483;51.310;4.462;2022-08-25T07:41:56;25.70;99.90
12833;DHT22;6483;51.310;4.462;2022-08-25T07:44:22;25.80;99.90
12833;DHT22;6483;51.310;4.462;2022-08-25T07:46:50;25.80;99.90
12833;DHT22;6483;51.310;4.462;2022-08-25T07:49:16;25.80;99.90
12833;DHT22;6483;51.310;4.462;2022-08-25T07:51:42;25.90;99.90
12833;DHT22;6483;51.310;4.462;2022-08-25T07:54:12;26.10;99.90
12833;DHT22;6483;51.310;4.462;2022-08-25T07:56:38;26.40;99.90
12833;DHT22;6483;51.310;4.462;2022-08-25T07:59:06;26.70;99.90
12833;DHT22;6483;51.310;4.462;2022-08-25T08:01:39;26.80;99.90
12833;DHT22;6483;51.310;4.462;2022-08-25T08:04:04;27.00;99.90
12833;DHT22;6483;51.310;4.462;2022-08-25T08:06:30;27.10;99.90
12833;DHT22;6483;51.310;4.462;2022-08-25T08:08:56;27.20;99.90
12833;DHT22;6483;51.310;4.462;2022-08-25T08:11:29;27.50;99.90
12833;DHT22;6483;51.310;4.462;2022-08-25T08:13:56;27.80;99.90
12833;DHT22;6483;51.310;4.462;2022-08-25T08:16:25;28.10;99.90
12833;DHT22;6483;51.310;4.462;2022-08-25T08:18:51;28.20;99.90
12833;DHT22;6483;51.310;4.462;2022-08-25T08:21:29;28.10;99.90
12833;DHT22;6483;51.310;4.462;2022-08-25T08:23:55;28.00;99.90
12833;DHT22;6483;51.310;4.462;2022-08-25T08:26:21;27.90;99.90
12833;DHT22;6483;51.310;4.462;2022-08-25T08:28:49;27.70;99.90
12833;DHT22;6483;51.310;4.462;2022-08-25T08:31:20;28.00;99.90
12833;DHT22;6483;51.310;4.462;2022-08-25T08:33:48;28.50;99.90
12833;DHT22;6483;51.310;4.462;2022-08-25T08:36:14;28.90;99.90
12833;DHT22;6483;51.310;4.462;2022-08-25T08:38:40;28.90;99.90
12833;DHT22;6483;51.310;4.462;2022-08-25T08:44:18;29.30;99.90
12833;DHT22;6483;51.310;4.462;2022-08-25T08:53:16;29.60;99.20
12833;DHT22;6483;51.310;4.462;2022-08-25T08:56:20;29.30;98.40
12833;DHT22;6483;51.310;4.462;2022-08-25T08:59:08;29.40;98.70
12833;DHT22;6483;51.310;4.462;2022-08-25T09:01:54;30.00;97.80
12833;DHT22;6483;51.310;4.462;2022-08-25T09:05:06;30.20;97.00
12833;DHT22;6483;51.310;4.462;2022-08-25T09:07:39;30.40;96.00
12833;DHT22;6483;51.310;4.462;2022-08-25T09:10:07;30.10;96.40
12833;DHT22;6483;51.310;4.462;2022-08-25T09:13:07;30.50;97.00
12833;DHT22;6483;51.310;4.462;2022-08-25T09:18:51;34.00;94.40
12833;DHT22;6483;51.310;4.462;2022-08-25T09:21:29;35.30;90.60
12833;DHT22;6483;51.310;4.462;2022-08-25T09:29:21;35.10;82.30
12833;DHT22;6483;51.310;4.462;2022-08-25T09:31:48;36.30;82.50
12833;DHT22;6483;51.310;4.462;2022-08-25T09:34:21;36.20;79.70
12833;DHT22;6483;51.310;4.462;2022-08-25T09:36:48;36.90;75.50
12833;DHT22;6483;51.310;4.462;2022-08-25T09:39:34;36.00;77.20
12833;DHT22;6483;51.310;4.462;2022-08-25T09:42:00;37.20;77.10
12833;DHT22;6483;51.310;4.462;2022-08-25T09:44:41;37.30;71.00
12833;DHT22;6483;51.310;4.462;2022-08-25T09:47:22;38.00;71.10
12833;DHT22;6483;51.310;4.462;2022-08-25T09:50:00;38.90;69.20
12833;DHT22;6483;51.310;4.462;2022-08-25T09:52:37;38.90;64.90
12833;DHT22;6483;51.310;4.462;2022-08-25T09:57:49;39.30;66.70
12833;DHT22;6483;51.310;4.462;2022-08-25T10:21:14;38.60;64.80
12833;DHT22;6483;51.310;4.462;2022-08-25T10:23:47;42.00;57.30
